Terminal Aerodrome Forecast
Issued by NWS Pueblo, CO

Home | Current Version | Previous Version | Text Only | Print | Product List | Glossary On
Versions: 1 2 3 4 5 6 7 8 9 10 11 12 13 14 15 16 17 18 19 20 21 22 23 24 25 26 27 28 29 30 31 32 33 34 35 36 37 38 39 40
000
FTUS45 KPUB 251120
TAFCOS
TAF
KCOS 251120Z 2512/2612 03010KT P6SM FEW100 SCT220
     FM251600 12012KT P6SM SCT100 BKN200
     FM251900 09012KT P6SM VCSH BKN030 OVC100
     FM252100 01015KT 3SM -SHRA BKN025 OVC040
     FM260200 36022G34KT 2SM -SHRASN OVC010
     FM260700 35012KT P6SM VCSH FEW040 BKN170
     FM261000 35007KT P6SM SCT170=

USA.gov is the U.S. government's official web portal to all federal, state and local government web resources and services.